Time;durP1;ratioP1;P1;durP2;ratioP2;P2;SDS_P1;SDS_P2;PMS_P1;PMS_P2;Temp;Humidity;BMP_temperature;BMP_pressure;BME280_temperature;BME280_humidity;BME280_pressure;Samples;Min_cycle;Max_cycle;Signal;HPM_P1;HPM_P2
2023/03/24 00:02:17;;;;;;;2.63;1.85;;;12.00;79.50;;;;;;5036849;28;20127;-78
2023/03/24 00:04:42;;;;;;;4.82;1.80;;;12.00;79.50;;;;;;5034281;28;20085;-78
2023/03/24 00:07:13;;;;;;;2.85;1.70;;;12.00;79.60;;;;;;5015248;28;21014;-78
2023/03/24 00:09:39;;;;;;;3.03;1.80;;;12.00;79.60;;;;;;5024071;28;20042;-77
2023/03/24 00:12:05;;;;;;;4.55;1.75;;;12.00;79.60;;;;;;4988032;28;20037;-77
2023/03/24 00:14:30;;;;;;;2.63;1.80;;;12.00;79.70;;;;;;4998526;28;20045;-78
2023/03/24 00:16:58;;;;;;;1.55;1.40;;;12.00;79.80;;;;;;5001004;28;20500;-77
2023/03/24 00:19:24;;;;;;;3.10;2.03;;;12.00;80.00;;;;;;4998529;28;20528;-78
2023/03/24 00:21:49;;;;;;;3.38;1.60;;;12.00;80.10;;;;;;4987218;28;20064;-78
2023/03/24 00:24:15;;;;;;;2.38;1.70;;;12.00;80.40;;;;;;4993696;28;20596;-78
2023/03/24 00:26:40;;;;;;;1.95;1.80;;;12.00;80.40;;;;;;4996445;28;20099;-77
2023/03/24 00:29:08;;;;;;;4.43;2.00;;;12.00;80.40;;;;;;4994107;28;20163;-77
2023/03/24 00:31:38;;;;;;;4.20;1.98;;;12.00;80.30;;;;;;5014832;28;20399;-78
2023/03/24 00:34:06;;;;;;;4.80;1.83;;;12.00;80.40;;;;;;5010615;28;20044;-78
2023/03/24 00:36:32;;;;;;;3.17;1.85;;;12.00;80.40;;;;;;5017472;28;20072;-77
2023/03/24 00:38:57;;;;;;;2.00;1.63;;;12.00;80.60;;;;;;4976803;28;20452;-77
2023/03/24 00:41:25;;;;;;;2.67;1.98;;;12.00;80.70;;;;;;5013608;28;20578;-78
2023/03/24 00:43:53;;;;;;;2.58;1.60;;;12.00;80.70;;;;;;4998483;28;20094;-77
2023/03/24 00:46:28;;;;;;;3.45;1.77;;;12.00;80.80;;;;;;5017745;28;20512;-78
2023/03/24 00:49:01;;;;;;;1.88;1.77;;;11.90;80.70;;;;;;5021608;28;20048;-77
2023/03/24 00:51:28;;;;;;;3.13;1.90;;;11.90;80.80;;;;;;5013013;28;20037;-78
2023/03/24 00:53:56;;;;;;;2.28;1.88;;;11.90;80.80;;;;;;5012684;28;20079;-78
2023/03/24 00:56:24;;;;;;;2.10;1.67;;;11.90;80.80;;;;;;4985551;28;20037;-78
2023/03/24 00:58:50;;;;;;;3.58;1.92;;;11.90;80.80;;;;;;4992556;28;20569;-78
2023/03/24 01:01:15;;;;;;;3.78;1.92;;;11.90;80.80;;;;;;4997753;28;20034;-78
2023/03/24 01:03:46;;;;;;;5.28;1.52;;;11.90;80.80;;;;;;4981129;28;20038;-77
2023/03/24 01:06:12;;;;;;;2.22;1.70;;;11.90;80.90;;;;;;5013619;28;20080;-78
2023/03/24 01:08:38;;;;;;;2.08;1.88;;;11.90;81.00;;;;;;4995518;28;20053;-78
2023/03/24 01:11:04;;;;;;;4.00;2.38;;;11.90;81.10;;;;;;4994416;28;20030;-78
2023/03/24 01:13:29;;;;;;;3.05;1.80;;;11.90;81.20;;;;;;5013314;28;20938;-78
2023/03/24 01:15:56;;;;;;;3.40;1.80;;;11.90;81.20;;;;;;5014925;28;20132;-78
2023/03/24 01:18:26;;;;;;;2.70;2.10;;;11.90;81.30;;;;;;4994526;28;20408;-77
2023/03/24 01:20:52;;;;;;;2.22;2.00;;;11.90;81.30;;;;;;5009948;28;20038;-78
2023/03/24 01:23:20;;;;;;;2.65;1.80;;;11.90;81.40;;;;;;4993750;28;20038;-78
2023/03/24 01:25:47;;;;;;;2.33;1.73;;;11.90;81.50;;;;;;5011386;28;20057;-78
2023/03/24 01:28:13;;;;;;;3.15;1.63;;;11.90;81.50;;;;;;5013125;28;20038;-78
2023/03/24 01:30:38;;;;;;;4.05;1.90;;;11.90;82.30;;;;;;5021932;28;20767;-78
2023/03/24 01:33:04;;;;;;;3.10;1.88;;;11.90;81.50;;;;;;5005448;28;20044;-78
2023/03/24 01:35:29;;;;;;;3.03;2.00;;;11.90;81.50;;;;;;5005095;28;20045;-78
2023/03/24 01:37:55;;;;;;;1.92;1.63;;;11.90;81.60;;;;;;4993812;28;20127;-78
2023/03/24 01:40:24;;;;;;;2.30;2.03;;;11.90;81.60;;;;;;5005512;28;20506;-78
2023/03/24 01:42:50;;;;;;;1.73;1.52;;;11.90;81.80;;;;;;4998917;28;20716;-78
2023/03/24 01:45:37;;;;;;;1.95;1.63;;;11.90;81.70;;;;;;4991303;28;20180;-77
2023/03/24 01:48:23;;;;;;;2.92;1.80;;;11.90;82.80;;;;;;5017104;28;20044;-77
2023/03/24 01:51:04;;;;;;;2.03;1.80;;;11.80;81.70;;;;;;4994119;28;20049;-76
2023/03/24 01:53:30;;;;;;;3.50;2.20;;;11.80;81.70;;;;;;5010326;28;20117;-78
2023/03/24 01:55:56;;;;;;;2.45;1.90;;;11.80;81.60;;;;;;5015809;28;20866;-77
2023/03/24 01:58:23;;;;;;;2.85;1.90;;;11.80;81.60;;;;;;5011731;28;20025;-77
2023/03/24 02:00:49;;;;;;;2.72;2.00;;;11.80;81.60;;;;;;4978417;28;20071;-76
2023/03/24 02:03:20;;;;;;;4.05;2.42;;;11.80;81.70;;;;;;5014470;28;20114;-78
2023/03/24 02:05:46;;;;;;;5.07;2.50;;;11.80;81.80;;;;;;5011212;28;20045;-78
2023/03/24 02:08:29;;;;;;;2.70;2.00;;;11.80;81.70;;;;;;4993014;28;20060;-77
2023/03/24 02:10:54;;;;;;;2.42;2.00;;;11.80;82.00;;;;;;5020443;28;20065;-78
2023/03/24 02:13:21;;;;;;;3.60;2.05;;;11.80;81.80;;;;;;4998615;28;20064;-78
2023/03/24 02:16:11;;;;;;;4.40;1.98;;;11.70;82.60;;;;;;5018574;28;20439;-78
2023/03/24 02:18:54;;;;;;;4.78;2.50;;;11.80;82.10;;;;;;5028732;28;20508;-78
2023/03/24 02:21:37;;;;;;;3.85;2.30;;;11.70;82.00;;;;;;5018076;28;20049;-77
2023/03/24 02:24:40;;;;;;;3.92;2.20;;;11.70;82.00;;;;;;4999979;28;20025;-77
2023/03/24 02:27:14;;;;;;;4.30;2.28;;;11.70;82.00;;;;;;5009558;28;21458;-78
2023/03/24 02:30:09;;;;;;;5.93;2.05;;;11.70;81.80;;;;;;5019444;28;20132;-78
2023/03/24 02:32:59;;;;;;;3.67;2.22;;;11.60;82.00;;;;;;4997006;28;20048;-78
2023/03/24 02:35:57;;;;;;;3.25;2.38;;;11.60;82.00;;;;;;5021595;28;20053;-78
2023/03/24 02:38:47;;;;;;;2.50;2.10;;;11.60;82.20;;;;;;4998569;28;20038;-78
2023/03/24 02:41:49;;;;;;;3.42;2.00;;;11.60;82.10;;;;;;5028805;28;20065;-77
2023/03/24 02:44:40;;;;;;;3.33;1.90;;;11.60;82.40;;;;;;5015368;28;20389;-78
2023/03/24 02:47:23;;;;;;;2.63;1.80;;;11.60;82.30;;;;;;5000137;28;20025;-77
2023/03/24 02:50:19;;;;;;;2.00;1.80;;;11.60;82.40;;;;;;4985545;28;20033;-77
2023/03/24 02:53:07;;;;;;;2.40;2.03;;;11.50;82.50;;;;;;5003020;28;20045;-78
2023/03/24 02:55:45;;;;;;;2.63;1.98;;;11.50;82.50;;;;;;5034927;28;20041;-77
2023/03/24 02:58:18;;;;;;;2.97;2.08;;;11.50;82.50;;;;;;5020128;28;20406;-78
2023/03/24 03:00:52;;;;;;;1.90;1.73;;;11.50;82.50;;;;;;5004524;28;20044;-78
2023/03/24 03:03:21;;;;;;;2.58;2.10;;;11.50;82.60;;;;;;5021541;28;20065;-77
2023/03/24 03:06:02;;;;;;;2.63;2.00;;;11.50;82.60;;;;;;5021951;28;20045;-77
2023/03/24 03:08:28;;;;;;;4.45;2.17;;;11.50;82.80;;;;;;4990909;28;20039;-77
2023/03/24 03:10:54;;;;;;;3.70;2.03;;;11.40;82.70;;;;;;4999608;28;22798;-78
2023/03/24 03:13:35;;;;;;;2.15;1.90;;;11.40;82.80;;;;;;5002619;28;20527;-77
2023/03/24 03:16:09;;;;;;;2.40;1.63;;;11.40;82.90;;;;;;5016980;28;20061;-78
2023/03/24 03:18:50;;;;;;;4.50;2.03;;;11.40;82.80;;;;;;5031058;28;21901;-77
2023/03/24 03:21:18;;;;;;;2.15;1.67;;;11.40;82.90;;;;;;4997539;28;20029;-77
2023/03/24 03:24:00;;;;;;;3.25;1.77;;;11.40;82.70;;;;;;5006429;28;20055;-78
2023/03/24 03:26:27;;;;;;;4.80;2.13;;;11.50;83.00;;;;;;4992832;28;20680;-78
2023/03/24 03:28:56;;;;;;;2.60;1.63;;;11.40;82.90;;;;;;5002216;28;20084;-78
2023/03/24 03:31:28;;;;;;;2.42;1.80;;;11.40;82.90;;;;;;4994407;28;20583;-77
2023/03/24 03:34:14;;;;;;;2.17;1.88;;;11.40;82.90;;;;;;5012626;28;20046;-78
2023/03/24 03:36:49;;;;;;;4.35;2.10;;;11.40;83.90;;;;;;5010005;28;20061;-77
2023/03/24 03:39:27;;;;;;;2.38;1.90;;;11.40;83.00;;;;;;4996974;28;20037;-77
2023/03/24 03:41:53;;;;;;;4.07;2.28;;;11.40;83.10;;;;;;4998203;28;20045;-77
2023/03/24 03:44:18;;;;;;;3.25;1.98;;;11.40;82.90;;;;;;5012826;28;20659;-78
2023/03/24 03:46:44;;;;;;;3.70;2.13;;;11.40;83.00;;;;;;4994881;28;20069;-77
2023/03/24 03:49:09;;;;;;;4.05;2.70;;;11.40;82.90;;;;;;5011620;28;20057;-77
2023/03/24 03:51:35;;;;;;;4.70;2.78;;;11.40;83.00;;;;;;5014062;28;20040;-77
2023/03/24 03:54:05;;;;;;;3.35;2.67;;;11.40;83.10;;;;;;5020311;28;20320;-78
2023/03/24 03:56:32;;;;;;;3.42;2.60;;;11.40;83.20;;;;;;5001854;28;20116;-78
2023/03/24 03:58:58;;;;;;;5.20;3.05;;;11.40;83.10;;;;;;5011825;28;20091;-77
2023/03/24 04:01:26;;;;;;;2.95;2.58;;;11.40;83.10;;;;;;5004044;28;20093;-78
2023/03/24 04:04:20;;;;;;;2.20;2.00;;;11.40;83.20;;;;;;4981798;28;20037;-78
2023/03/24 04:06:56;;;;;;;2.28;1.92;;;11.40;83.60;;;;;;5006473;28;20141;-78
2023/03/24 04:09:36;;;;;;;3.25;2.38;;;11.40;83.30;;;;;;5008685;28;20133;-78
2023/03/24 04:12:37;;;;;;;2.55;1.90;;;11.40;83.40;;;;;;4998881;28;20034;-78
2023/03/24 04:15:15;;;;;;;2.78;2.00;;;11.30;83.70;;;;;;5011304;28;20116;-78
2023/03/24 04:17:41;;;;;;;2.45;2.22;;;11.40;83.50;;;;;;5012123;28;20076;-77
2023/03/24 04:20:15;;;;;;;2.30;1.90;;;11.30;83.40;;;;;;5013650;28;20069;-77
2023/03/24 04:23:01;;;;;;;2.05;1.85;;;11.30;83.40;;;;;;5010507;28;20170;-78
2023/03/24 04:25:43;;;;;;;2.97;1.88;;;11.30;83.60;;;;;;5013958;28;20045;-78
2023/03/24 04:28:25;;;;;;;2.83;1.90;;;11.30;83.50;;;;;;5012287;28;20117;-77
2023/03/24 04:31:02;;;;;;;2.25;1.92;;;11.30;83.40;;;;;;5011471;28;20524;-78
2023/03/24 04:33:49;;;;;;;4.47;2.10;;;11.30;83.40;;;;;;4995515;28;20033;-79
2023/03/24 04:36:41;;;;;;;2.30;1.70;;;11.30;83.60;;;;;;5032669;28;20037;-78
2023/03/24 04:39:11;;;;;;;2.95;2.42;;;11.30;84.30;;;;;;5019642;28;20106;-78
2023/03/24 04:41:37;;;;;;;2.17;1.90;;;11.30;83.40;;;;;;4973567;28;20401;-78
2023/03/24 04:44:02;;;;;;;1.98;1.77;;;11.30;83.50;;;;;;5045201;28;20858;-77
2023/03/24 04:46:28;;;;;;;2.47;1.98;;;11.30;83.70;;;;;;5014777;28;20033;-78
2023/03/24 04:48:54;;;;;;;4.47;2.03;;;11.30;83.80;;;;;;5000277;28;20057;-78
2023/03/24 04:51:20;;;;;;;6.32;1.77;;;11.30;84.00;;;;;;5023306;28;20048;-78
2023/03/24 04:53:45;;;;;;;2.28;1.80;;;11.30;84.10;;;;;;5028583;28;20041;-79
2023/03/24 04:56:30;;;;;;;3.80;2.30;;;11.30;84.10;;;;;;5046536;28;20178;-79
2023/03/24 04:58:57;;;;;;;2.83;2.22;;;11.30;84.30;;;;;;5022312;28;20586;-80
2023/03/24 05:01:28;;;;;;;2.60;2.05;;;11.30;84.30;;;;;;5018728;28;20480;-78
2023/03/24 05:03:53;;;;;;;2.67;1.75;;;11.40;84.50;;;;;;5030583;28;20041;-77
2023/03/24 05:06:19;;;;;;;2.20;1.92;;;11.40;84.70;;;;;;5023290;28;20032;-79
2023/03/24 05:08:44;;;;;;;2.25;1.73;;;11.40;84.60;;;;;;5020256;28;20034;-78
2023/03/24 05:11:10;;;;;;;2.95;2.17;;;11.50;84.60;;;;;;5031270;28;20063;-80
2023/03/24 05:13:36;;;;;;;11.52;2.88;;;11.50;84.60;;;;;;4999678;28;20037;-78
2023/03/24 05:16:01;;;;;;;3.05;1.90;;;11.60;84.60;;;;;;5030550;28;20032;-79
2023/03/24 05:18:27;;;;;;;3.15;2.10;;;11.60;84.70;;;;;;5014014;28;20025;-79
2023/03/24 05:20:53;;;;;;;2.22;2.03;;;11.70;84.70;;;;;;4999006;28;20120;-79
2023/03/24 05:23:18;;;;;;;4.63;2.55;;;11.70;84.60;;;;;;5025091;28;20395;-78
2023/03/24 05:25:45;;;;;;;2.00;1.80;;;11.80;84.70;;;;;;4999407;28;20029;-79
2023/03/24 05:28:11;;;;;;;4.07;2.17;;;11.80;84.60;;;;;;5016304;28;20040;-79
2023/03/24 05:30:36;;;;;;;4.28;2.17;;;11.80;84.60;;;;;;5033312;28;20024;-78
2023/03/24 05:33:02;;;;;;;3.92;2.30;;;11.90;84.70;;;;;;5032067;28;20035;-79
2023/03/24 05:35:27;;;;;;;3.70;2.20;;;11.90;84.80;;;;;;5030390;28;20749;-77
2023/03/24 05:37:53;;;;;;;3.17;2.03;;;11.90;84.80;;;;;;5031864;28;20048;-80
2023/03/24 05:40:19;;;;;;;3.60;2.08;;;12.00;84.80;;;;;;5019636;28;20051;-79
2023/03/24 05:42:47;;;;;;;3.97;2.20;;;12.00;84.80;;;;;;5034426;28;20033;-78
2023/03/24 05:45:12;;;;;;;2.15;1.85;;;12.00;84.90;;;;;;5008365;28;20044;-78
2023/03/24 05:47:38;;;;;;;2.90;1.70;;;12.10;85.00;;;;;;5027422;28;20036;-79
2023/03/24 05:50:04;;;;;;;4.40;2.17;;;12.10;85.00;;;;;;5012441;28;20465;-79
2023/03/24 05:52:30;;;;;;;3.05;2.00;;;12.10;85.00;;;;;;5033524;28;20795;-79
2023/03/24 05:54:56;;;;;;;2.30;2.10;;;12.20;85.20;;;;;;5018778;28;20040;-81
2023/03/24 05:57:21;;;;;;;2.53;2.03;;;12.20;85.20;;;;;;5005053;28;20028;-79
2023/03/24 05:59:47;;;;;;;5.07;2.40;;;12.20;85.30;;;;;;5019833;28;20047;-79
2023/03/24 06:02:12;;;;;;;2.70;2.28;;;12.20;85.40;;;;;;5020277;28;20032;-79
2023/03/24 06:04:38;;;;;;;5.30;1.92;;;12.20;85.60;;;;;;5020454;28;20040;-78
2023/03/24 06:07:03;;;;;;;3.03;2.28;;;12.20;85.60;;;;;;5003128;28;20040;-79
2023/03/24 06:09:34;;;;;;;4.07;2.10;;;12.20;85.70;;;;;;5033624;28;20095;-80
2023/03/24 06:12:00;;;;;;;3.10;1.77;;;12.20;85.80;;;;;;5037258;28;20413;-79
2023/03/24 06:14:26;;;;;;;2.78;2.20;;;12.20;85.90;;;;;;5019946;28;20041;-80
2023/03/24 06:16:51;;;;;;;2.50;2.20;;;12.20;86.00;;;;;;5020344;28;20235;-79
2023/03/24 06:19:21;;;;;;;4.32;2.22;;;12.20;86.10;;;;;;5051063;28;20174;-79
2023/03/24 06:21:49;;;;;;;2.20;1.83;;;12.20;86.20;;;;;;5031778;28;20041;-78
2023/03/24 06:24:16;;;;;;;5.68;2.40;;;12.20;86.20;;;;;;5000421;28;20620;-79
2023/03/24 06:26:43;;;;;;;3.97;2.38;;;12.20;86.40;;;;;;4996970;28;20136;-79
2023/03/24 06:29:09;;;;;;;4.18;2.38;;;12.20;86.50;;;;;;5021985;28;20029;-79
2023/03/24 06:31:36;;;;;;;3.72;2.00;;;12.20;86.60;;;;;;5020388;28;20959;-78
2023/03/24 06:34:04;;;;;;;4.15;2.15;;;12.20;86.60;;;;;;5023496;28;20661;-79
2023/03/24 06:36:30;;;;;;;1.80;1.70;;;12.20;86.80;;;;;;5016043;28;20042;-79
2023/03/24 06:38:55;;;;;;;2.72;2.10;;;12.20;86.90;;;;;;5014272;28;20033;-79
2023/03/24 06:41:21;;;;;;;4.22;2.03;;;12.30;87.00;;;;;;5031553;28;20038;-80
2023/03/24 06:43:47;;;;;;;3.67;2.80;;;12.30;87.00;;;;;;5015320;28;20044;-78
2023/03/24 06:46:12;;;;;;;3.53;2.47;;;12.20;87.10;;;;;;5020107;28;20033;-80
2023/03/24 06:48:38;;;;;;;4.88;2.40;;;12.30;87.30;;;;;;4990569;28;20044;-79
2023/03/24 06:51:04;;;;;;;2.65;2.22;;;12.30;87.30;;;;;;5003430;28;20503;-79
2023/03/24 06:53:29;;;;;;;4.28;2.60;;;12.30;87.40;;;;;;5014301;28;20033;-78
2023/03/24 06:55:55;;;;;;;3.70;2.97;;;12.40;87.50;;;;;;5002552;28;20041;-79
2023/03/24 06:58:21;;;;;;;3.40;2.70;;;12.40;87.60;;;;;;5032803;28;20029;-79
2023/03/24 07:00:46;;;;;;;2.42;2.22;;;12.40;87.60;;;;;;5002306;28;20029;-79
2023/03/24 07:03:14;;;;;;;4.47;2.55;;;12.40;87.50;;;;;;5009773;28;20107;-78
2023/03/24 07:05:40;;;;;;;3.47;2.60;;;12.50;87.70;;;;;;5004577;28;20035;-79
2023/03/24 07:08:05;;;;;;;2.97;2.20;;;12.50;87.60;;;;;;5032748;28;20048;-80
2023/03/24 07:10:31;;;;;;;3.50;2.70;;;12.60;87.70;;;;;;5024020;28;20037;-78
2023/03/24 07:12:58;;;;;;;3.28;2.10;;;12.60;87.60;;;;;;5020891;28;20044;-79
2023/03/24 07:15:23;;;;;;;4.80;3.30;;;12.60;87.70;;;;;;5049622;28;20502;-78
2023/03/24 07:17:49;;;;;;;4.38;2.60;;;12.70;87.70;;;;;;5033065;28;20037;-79
2023/03/24 07:20:15;;;;;;;11.48;6.10;;;12.70;87.70;;;;;;5048065;28;20040;-79
2023/03/24 07:22:40;;;;;;;12.98;7.53;;;12.80;87.80;;;;;;5028977;28;20045;-79
2023/03/24 07:25:06;;;;;;;4.95;3.10;;;12.80;87.70;;;;;;5007468;28;20040;-78
2023/03/24 07:27:32;;;;;;;3.30;2.63;;;12.90;87.80;;;;;;5003723;28;20071;-78
2023/03/24 07:29:58;;;;;;;4.63;2.78;;;12.90;87.70;;;;;;5021807;28;20041;-77
2023/03/24 07:32:24;;;;;;;3.50;2.25;;;13.00;88.50;;;;;;5030722;28;20061;-79
2023/03/24 07:34:50;;;;;;;2.90;2.10;;;13.00;87.80;;;;;;5005392;28;20080;-80
2023/03/24 07:37:15;;;;;;;3.78;2.30;;;13.00;87.70;;;;;;5020625;28;20047;-80
2023/03/24 07:39:41;;;;;;;2.67;1.90;;;13.10;87.70;;;;;;5020228;28;20039;-79
2023/03/24 07:42:06;;;;;;;3.70;2.30;;;13.10;87.60;;;;;;5010829;28;20145;-79
2023/03/24 07:44:32;;;;;;;2.30;2.03;;;13.20;87.50;;;;;;5021503;28;20040;-78
2023/03/24 07:46:57;;;;;;;2.45;1.73;;;13.20;87.40;;;;;;5019299;28;20041;-78
2023/03/24 07:49:23;;;;;;;3.00;1.70;;;13.20;87.30;;;;;;5028133;28;20068;-78
2023/03/24 07:51:49;;;;;;;1.90;1.65;;;13.30;87.30;;;;;;5017282;28;20044;-78
2023/03/24 07:54:14;;;;;;;2.17;1.90;;;13.30;87.20;;;;;;5018274;28;20071;-78
2023/03/24 07:56:40;;;;;;;2.10;1.85;;;13.30;87.10;;;;;;5011195;28;20048;-79
2023/03/24 07:59:08;;;;;;;2.17;1.80;;;13.30;87.00;;;;;;5034979;28;20052;-79
2023/03/24 08:01:35;;;;;;;4.97;2.00;;;13.40;87.00;;;;;;5033793;28;20040;-78
2023/03/24 08:04:01;;;;;;;3.35;1.95;;;13.40;86.90;;;;;;5023929;28;20084;-78
2023/03/24 08:06:28;;;;;;;2.50;2.08;;;13.50;86.90;;;;;;5016633;28;20052;-78
2023/03/24 08:08:53;;;;;;;2.72;2.00;;;13.50;86.80;;;;;;5014630;28;20040;-79
2023/03/24 08:11:19;;;;;;;2.08;1.80;;;13.50;86.70;;;;;;5010450;28;20068;-78
2023/03/24 08:13:45;;;;;;;2.92;2.00;;;13.60;86.70;;;;;;5005156;28;20116;-79
2023/03/24 08:16:10;;;;;;;2.60;1.50;;;13.60;86.60;;;;;;5002619;28;20096;-79
2023/03/24 08:18:36;;;;;;;2.40;1.70;;;13.60;86.50;;;;;;5024022;28;20060;-78
2023/03/24 08:21:02;;;;;;;1.88;1.67;;;13.70;86.50;;;;;;5024557;28;20033;-78
2023/03/24 08:23:27;;;;;;;3.58;1.80;;;13.70;86.30;;;;;;5033650;28;20107;-79
2023/03/24 08:25:53;;;;;;;2.25;1.67;;;13.70;86.20;;;;;;5014417;28;20064;-81
2023/03/24 08:28:18;;;;;;;2.33;1.90;;;13.70;86.20;;;;;;5006984;28;20020;-78
2023/03/24 08:30:44;;;;;;;1.60;1.50;;;13.70;86.10;;;;;;5019902;28;20040;-79
2023/03/24 08:33:11;;;;;;;1.90;1.40;;;13.80;86.10;;;;;;5023449;28;20033;-78
2023/03/24 08:35:39;;;;;;;2.30;1.83;;;13.80;86.00;;;;;;5018628;28;20115;-79
2023/03/24 08:38:05;;;;;;;3.22;1.77;;;13.80;85.90;;;;;;5025247;28;20056;-79
2023/03/24 08:40:33;;;;;;;2.95;1.63;;;13.80;85.90;;;;;;5024325;28;20029;-77
2023/03/24 08:43:00;;;;;;;3.17;1.73;;;13.80;85.80;;;;;;5018923;28;20066;-78
2023/03/24 08:45:27;;;;;;;3.53;1.73;;;13.90;85.80;;;;;;4992491;28;20056;-79
2023/03/24 08:47:53;;;;;;;3.60;1.88;;;13.90;85.80;;;;;;5001074;28;20030;-79
2023/03/24 08:50:20;;;;;;;1.70;1.60;;;13.90;85.60;;;;;;4990138;28;20456;-79
2023/03/24 08:52:47;;;;;;;2.92;1.60;;;13.90;85.60;;;;;;5038833;28;20740;-78
2023/03/24 08:55:15;;;;;;;1.95;1.63;;;13.90;85.50;;;;;;5024126;28;20044;-80
2023/03/24 08:57:41;;;;;;;2.38;1.70;;;14.00;85.60;;;;;;5030945;28;20049;-78
2023/03/24 09:00:17;;;;;;;1.80;1.70;;;14.00;85.40;;;;;;5023081;28;20037;-80
2023/03/24 09:02:43;;;;;;;2.90;1.85;;;14.10;85.40;;;;;;5040616;28;20151;-79
2023/03/24 09:05:10;;;;;;;3.00;2.10;;;14.20;85.40;;;;;;5006852;28;20546;-79
2023/03/24 09:07:35;;;;;;;2.28;1.65;;;14.30;85.30;;;;;;5020573;28;21361;-79
2023/03/24 09:10:01;;;;;;;2.30;1.63;;;14.30;85.10;;;;;;5002790;28;20048;-78
2023/03/24 09:12:27;;;;;;;2.75;2.30;;;14.40;85.00;;;;;;5027208;28;20040;-80
2023/03/24 09:14:52;;;;;;;2.28;1.77;;;14.50;85.00;;;;;;5015819;28;20041;-79
2023/03/24 09:17:18;;;;;;;2.78;2.20;;;14.50;84.80;;;;;;5017954;28;20106;-80
2023/03/24 09:19:43;;;;;;;2.22;2.03;;;14.60;84.60;;;;;;5022221;28;20090;-78
2023/03/24 09:22:09;;;;;;;4.43;2.63;;;14.60;84.40;;;;;;5032076;28;20033;-80
2023/03/24 09:24:35;;;;;;;2.95;2.60;;;14.70;84.30;;;;;;5021360;28;20048;-79
2023/03/24 09:27:01;;;;;;;3.17;2.88;;;14.60;84.20;;;;;;5021855;28;20032;-79
2023/03/24 09:29:34;;;;;;;3.92;3.45;;;14.70;84.20;;;;;;5005000;28;20033;-79
2023/03/24 09:32:00;;;;;;;5.60;3.50;;;14.70;84.10;;;;;;5015839;28;20037;-79
2023/03/24 09:34:25;;;;;;;4.65;3.67;;;14.70;84.00;;;;;;5004295;28;20615;-80
2023/03/24 09:36:51;;;;;;;4.90;3.40;;;14.70;84.00;;;;;;4999742;28;20279;-79
2023/03/24 09:39:16;;;;;;;3.38;3.10;;;14.70;83.90;;;;;;5025694;28;20504;-78
2023/03/24 09:41:44;;;;;;;3.47;3.17;;;14.70;83.80;;;;;;5053143;28;20136;-79
2023/03/24 09:44:26;;;;;;;4.07;3.47;;;14.70;83.80;;;;;;5006431;28;20051;-79
2023/03/24 09:46:56;;;;;;;5.20;3.25;;;14.70;83.80;;;;;;4998847;28;20035;-79
2023/03/24 09:49:24;;;;;;;3.70;3.30;;;14.70;83.60;;;;;;5017266;28;20107;-79
2023/03/24 09:51:50;;;;;;;4.43;3.10;;;14.70;83.60;;;;;;4992248;28;20116;-79
2023/03/24 09:54:45;;;;;;;3.22;2.85;;;14.70;83.60;;;;;;5036058;28;20044;-78
2023/03/24 09:57:24;;;;;;;4.15;3.33;;;14.70;83.50;;;;;;5033306;28;20045;-79
2023/03/24 09:59:50;;;;;;;4.28;2.60;;;14.70;83.50;;;;;;5020164;28;20285;-79
2023/03/24 10:02:18;;;;;;;3.25;2.45;;;14.70;83.50;;;;;;5021147;28;20300;-79
2023/03/24 10:04:43;;;;;;;4.22;2.63;;;14.70;83.50;;;;;;5035072;28;20524;-79
2023/03/24 10:07:24;;;;;;;4.43;2.40;;;14.70;83.50;;;;;;5037791;28;20043;-79
2023/03/24 10:09:55;;;;;;;2.97;2.42;;;14.70;83.60;;;;;;5021100;28;20040;-79
2023/03/24 10:12:36;;;;;;;;;;;14.70;83.60;;;;;;5023632;28;20041;-80
2023/03/24 10:15:33;;;;;;;2.25;2.05;;;14.70;83.60;;;;;;5016503;28;19971;-79
2023/03/24 10:18:11;;;;;;;1.95;1.75;;;14.70;83.50;;;;;;5027748;28;20124;-79
2023/03/24 10:20:39;;;;;;;2.25;2.03;;;14.70;83.60;;;;;;5011202;28;20045;-81
2023/03/24 10:23:27;;;;;;;2.00;1.80;;;14.70;83.50;;;;;;5025811;28;20036;-81
2023/03/24 10:26:03;;;;;;;2.42;2.15;;;14.70;83.60;;;;;;5025262;28;20057;-81
2023/03/24 10:28:54;;;;;;;3.17;1.90;;;14.60;83.60;;;;;;5017515;28;20040;-80
2023/03/24 10:31:28;;;;;;;2.03;1.55;;;14.70;83.70;;;;;;5028910;28;20071;-80
2023/03/24 10:33:54;;;;;;;2.13;1.70;;;14.60;83.70;;;;;;5008323;28;20033;-80
2023/03/24 10:36:20;;;;;;;1.80;1.70;;;14.60;83.80;;;;;;5017335;28;20082;-79
2023/03/24 10:38:45;;;;;;;1.67;1.58;;;14.60;83.80;;;;;;5036335;28;20484;-81
2023/03/24 10:41:27;;;;;;;1.48;1.38;;;14.70;84.00;;;;;;5033851;28;20063;-80
2023/03/24 10:43:53;;;;;;;;;;;14.70;84.10;;;;;;5016372;28;20401;-81
2023/03/24 10:46:24;;;;;;;1.77;1.30;;;14.70;83.80;;;;;;5028157;28;19927;-81
2023/03/24 10:48:53;;;;;;;1.77;1.40;;;14.70;83.90;;;;;;4977897;28;20033;-78
2023/03/24 10:51:23;;;;;;;1.58;1.48;;;14.70;84.00;;;;;;4998051;28;20056;-79
2023/03/24 10:53:49;;;;;;;1.50;1.40;;;14.70;84.00;;;;;;5015601;28;20040;-80
2023/03/24 10:56:35;;;;;;;1.80;1.40;;;14.80;84.10;;;;;;5015096;28;20036;-79
2023/03/24 10:59:01;;;;;;;1.33;1.15;;;14.80;84.00;;;;;;5023602;28;20068;-80
2023/03/24 11:01:29;;;;;;;1.33;1.20;;;14.90;84.00;;;;;;5028687;28;20038;-78
2023/03/24 11:04:03;;;;;;;1.10;1.00;;;14.90;84.00;;;;;;5018476;28;20041;-81
2023/03/24 11:06:29;;;;;;;1.10;1.00;;;15.00;83.80;;;;;;5032281;28;20524;-80
2023/03/24 11:09:16;;;;;;;1.45;1.20;;;15.00;83.70;;;;;;5008076;28;20090;-80
2023/03/24 11:11:42;;;;;;;1.40;1.20;;;15.00;83.70;;;;;;5020543;28;20029;-81
2023/03/24 11:14:18;;;;;;;2.38;1.27;;;15.00;83.50;;;;;;5021392;28;20037;-80
2023/03/24 11:16:44;;;;;;;1.23;1.13;;;15.00;83.50;;;;;;4996449;28;20092;-81
2023/03/24 11:19:20;;;;;;;1.90;1.13;;;15.00;83.40;;;;;;5007044;28;20132;-80
2023/03/24 11:21:46;;;;;;;1.25;1.15;;;15.00;83.60;;;;;;5030255;28;20103;-82
2023/03/24 11:24:14;;;;;;;1.92;1.27;;;15.00;83.50;;;;;;5029519;28;20036;-82
2023/03/24 11:26:40;;;;;;;1.50;1.40;;;15.10;83.70;;;;;;5039231;28;20048;-81
2023/03/24 11:29:20;;;;;;;1.58;1.10;;;15.10;83.60;;;;;;5004117;28;20638;-80
2023/03/24 11:32:13;;;;;;;1.15;1.05;;;15.10;83.70;;;;;;5013192;28;20141;-80
2023/03/24 11:34:43;;;;;;;1.20;1.10;;;15.10;83.70;;;;;;5010496;28;20092;-78
2023/03/24 11:37:16;;;;;;;0.93;0.90;;;15.10;83.50;;;;;;4999602;28;20049;-81
2023/03/24 11:39:43;;;;;;;0.98;0.88;;;15.00;83.50;;;;;;5004439;28;20076;-80
2023/03/24 11:42:11;;;;;;;1.38;1.05;;;15.10;83.50;;;;;;4982369;28;20052;-80
2023/03/24 11:44:37;;;;;;;0.82;0.75;;;15.00;83.40;;;;;;5013553;28;20119;-80
2023/03/24 11:47:26;;;;;;;0.70;0.50;;;15.00;83.50;;;;;;5012449;28;20033;-80
2023/03/24 11:50:10;;;;;;;1.55;0.47;;;15.00;83.40;;;;;;5010887;28;20042;-79
2023/03/24 11:53:00;;;;;;;0.52;0.30;;;14.90;83.10;;;;;;5013804;28;20670;-80
2023/03/24 11:55:38;;;;;;;0.63;0.40;;;14.80;83.00;;;;;;5008640;28;20095;-80
2023/03/24 11:58:20;;;;;;;1.17;0.20;;;14.70;82.90;;;;;;5025087;28;20505;-80
2023/03/24 12:01:15;;;;;;;0.50;0.38;;;14.60;82.90;;;;;;5024287;28;20033;-80
2023/03/24 12:04:05;;;;;;;0.68;0.32;;;14.50;82.80;;;;;;4991155;28;20048;-79
2023/03/24 12:06:43;;;;;;;0.40;0.30;;;14.50;82.90;;;;;;5012887;28;20030;-79
2023/03/24 12:09:32;;;;;;;0.40;0.40;;;14.50;82.90;;;;;;5007656;28;20038;-80
2023/03/24 12:12:15;;;;;;;2.03;0.40;;;14.40;82.70;;;;;;4994943;28;20733;-78
2023/03/24 12:14:44;;;;;;;1.45;0.38;;;14.40;82.60;;;;;;4996515;28;20037;-80
2023/03/24 12:17:16;;;;;;;0.73;0.40;;;14.40;82.60;;;;;;5006201;28;20100;-78
2023/03/24 12:19:51;;;;;;;1.85;0.80;;;14.40;82.40;;;;;;4995436;28;20132;-80
2023/03/24 12:22:42;;;;;;;0.75;0.40;;;14.40;83.20;;;;;;5013852;28;20033;-79
2023/03/24 12:25:24;;;;;;;0.85;0.55;;;14.30;82.20;;;;;;5029234;28;20041;-81
2023/03/24 12:28:11;;;;;;;0.50;0.40;;;14.30;82.20;;;;;;5024577;28;20119;-79
2023/03/24 12:31:05;;;;;;;0.85;0.60;;;14.30;82.10;;;;;;5028277;28;20041;-80
2023/03/24 12:33:54;;;;;;;0.95;0.50;;;14.30;82.00;;;;;;5029612;28;20038;-80
2023/03/24 12:36:41;;;;;;;1.52;0.60;;;14.30;82.00;;;;;;5012897;28;20295;-79
2023/03/24 12:39:16;;;;;;;0.63;0.50;;;14.30;82.10;;;;;;5004502;28;20038;-80
2023/03/24 12:42:11;;;;;;;1.17;0.80;;;14.30;82.00;;;;;;4996391;28;20548;-79
2023/03/24 12:45:01;;;;;;;2.20;0.52;;;14.30;81.80;;;;;;5005249;28;20602;-80
2023/03/24 12:47:51;;;;;;;1.30;0.50;;;14.30;81.80;;;;;;5018287;28;20029;-80
2023/03/24 12:50:38;;;;;;;1.88;0.88;;;14.30;81.80;;;;;;5006489;28;20049;-79
2023/03/24 12:53:35;;;;;;;0.75;0.52;;;14.30;81.80;;;;;;5046959;28;20025;-78
2023/03/24 12:56:04;;;;;;;0.73;0.40;;;14.40;81.80;;;;;;5030106;28;20540;-80
2023/03/24 12:58:40;;;;;;;1.48;0.40;;;14.50;81.80;;;;;;5031683;28;20745;-80
2023/03/24 13:01:31;;;;;;;1.45;0.60;;;14.50;81.70;;;;;;5012817;28;20462;-79
2023/03/24 13:04:11;;;;;;;1.63;0.45;;;14.50;81.70;;;;;;5029376;28;20052;-79
2023/03/24 13:06:47;;;;;;;0.90;0.30;;;14.60;81.70;;;;;;5018788;28;20106;-80
2023/03/24 13:09:52;;;;;;;0.80;0.25;;;14.60;81.50;;;;;;5028039;28;20044;-79
2023/03/24 13:12:22;;;;;;;2.15;0.75;;;14.60;81.20;;;;;;5032385;28;20029;-79